METAR Data
IDs: Format: Raw Decoded Include TAF

Data at: 1248 UTC 23 Jun 2021

METAR for:LFQA (Reims/Prunay Aprt, GE, FR)
Text:LFQA 231230Z AUTO 33011KT 9999 BKN025 OVC048 19/14 Q1020
Temperature: 19.0°C ( 66°F)
Dewpoint: 14.0°C ( 57°F) [RH = 73%]
Pressure (altimeter):30.12 inches Hg (1020.0 mb)
Winds:from the NNW (330 degrees) at 13 MPH (11 knots; 5.7 m/s)
Visibility:6 or more sm (10+ km)
Ceiling:2500 feet AGL
Clouds: broken clouds at 2500 feet AGL, overcast cloud deck at 4800 feet AGL

TAF for:LFQA (Reims/Prunay Aprt, GE, FR)
Text:No data found